sensor_id;sensor_type;location;lat;lon;timestamp;temperature;humidity
4390;DHT22;2209;48.982;8.406;2023-12-29T00:01:49;11.20;99.90
4390;DHT22;2209;48.982;8.406;2023-12-29T00:04:12;11.20;99.90
4390;DHT22;2209;48.982;8.406;2023-12-29T00:06:37;11.20;99.90
4390;DHT22;2209;48.982;8.406;2023-12-29T00:09:01;11.20;99.90
4390;DHT22;2209;48.982;8.406;2023-12-29T00:11:24;11.20;99.90
4390;DHT22;2209;48.982;8.406;2023-12-29T00:13:46;11.20;99.90
4390;DHT22;2209;48.982;8.406;2023-12-29T00:16:09;11.20;99.90
4390;DHT22;2209;48.982;8.406;2023-12-29T00:18:31;11.20;99.90
4390;DHT22;2209;48.982;8.406;2023-12-29T00:20:54;11.20;99.90
4390;DHT22;2209;48.982;8.406;2023-12-29T00:23:16;11.20;99.90
4390;DHT22;2209;48.982;8.406;2023-12-29T00:25:40;11.20;99.90
4390;DHT22;2209;48.982;8.406;2023-12-29T00:28:03;11.20;99.90
4390;DHT22;2209;48.982;8.406;2023-12-29T00:30:26;11.20;99.90
4390;DHT22;2209;48.982;8.406;2023-12-29T00:32:49;11.20;99.90
4390;DHT22;2209;48.982;8.406;2023-12-29T00:35:11;11.10;99.90
4390;DHT22;2209;48.982;8.406;2023-12-29T00:37:34;11.10;99.90
4390;DHT22;2209;48.982;8.406;2023-12-29T00:39:56;11.10;99.90
4390;DHT22;2209;48.982;8.406;2023-12-29T00:42:20;11.10;99.90
4390;DHT22;2209;48.982;8.406;2023-12-29T00:44:42;11.10;99.90
4390;DHT22;2209;48.982;8.406;2023-12-29T00:47:05;11.10;99.90
4390;DHT22;2209;48.982;8.406;2023-12-29T00:49:27;11.10;99.90
4390;DHT22;2209;48.982;8.406;2023-12-29T00:51:50;11.10;99.90
4390;DHT22;2209;48.982;8.406;2023-12-29T00:54:12;11.10;99.90
4390;DHT22;2209;48.982;8.406;2023-12-29T00:56:35;11.10;99.90
4390;DHT22;2209;48.982;8.406;2023-12-29T00:58:58;11.10;99.90
4390;DHT22;2209;48.982;8.406;2023-12-29T01:01:21;11.10;99.90
4390;DHT22;2209;48.982;8.406;2023-12-29T01:03:43;11.10;99.90
4390;DHT22;2209;48.982;8.406;2023-12-29T01:06:06;11.10;99.90
4390;DHT22;2209;48.982;8.406;2023-12-29T01:08:28;11.10;99.90
4390;DHT22;2209;48.982;8.406;2023-12-29T01:10:50;11.10;99.90
4390;DHT22;2209;48.982;8.406;2023-12-29T01:13:13;11.10;99.90
4390;DHT22;2209;48.982;8.406;2023-12-29T01:15:37;11.10;99.90
4390;DHT22;2209;48.982;8.406;2023-12-29T01:18:03;11.10;99.90
4390;DHT22;2209;48.982;8.406;2023-12-29T01:20:47;11.10;99.90
4390;DHT22;2209;48.982;8.406;2023-12-29T01:23:10;11.10;99.90
4390;DHT22;2209;48.982;8.406;2023-12-29T01:25:32;11.10;99.90
4390;DHT22;2209;48.982;8.406;2023-12-29T01:27:54;11.10;99.90
4390;DHT22;2209;48.982;8.406;2023-12-29T01:30:17;11.10;99.90
4390;DHT22;2209;48.982;8.406;2023-12-29T01:32:40;11.10;99.90
4390;DHT22;2209;48.982;8.406;2023-12-29T01:35:03;11.10;99.90
4390;DHT22;2209;48.982;8.406;2023-12-29T01:37:25;11.00;99.90
4390;DHT22;2209;48.982;8.406;2023-12-29T01:39:47;11.10;99.90
4390;DHT22;2209;48.982;8.406;2023-12-29T01:42:10;11.10;99.90
4390;DHT22;2209;48.982;8.406;2023-12-29T01:44:33;11.10;99.90
4390;DHT22;2209;48.982;8.406;2023-12-29T01:46:58;11.00;99.90
4390;DHT22;2209;48.982;8.406;2023-12-29T01:49:22;11.00;99.90
4390;DHT22;2209;48.982;8.406;2023-12-29T01:51:46;11.00;99.90
4390;DHT22;2209;48.982;8.406;2023-12-29T01:54:10;11.00;99.90
4390;DHT22;2209;48.982;8.406;2023-12-29T01:56:33;11.00;99.90
4390;DHT22;2209;48.982;8.406;2023-12-29T01:58:56;11.00;99.90
4390;DHT22;2209;48.982;8.406;2023-12-29T02:01:19;11.00;99.90
4390;DHT22;2209;48.982;8.406;2023-12-29T02:03:42;11.00;99.90
4390;DHT22;2209;48.982;8.406;2023-12-29T02:06:06;11.00;99.90
4390;DHT22;2209;48.982;8.406;2023-12-29T02:08:30;11.00;99.90
4390;DHT22;2209;48.982;8.406;2023-12-29T02:10:53;11.00;99.90
4390;DHT22;2209;48.982;8.406;2023-12-29T02:13:15;11.00;99.90
4390;DHT22;2209;48.982;8.406;2023-12-29T02:15:38;11.10;99.90
4390;DHT22;2209;48.982;8.406;2023-12-29T02:18:02;11.00;99.90
4390;DHT22;2209;48.982;8.406;2023-12-29T02:20:26;11.00;99.90
4390;DHT22;2209;48.982;8.406;2023-12-29T02:22:50;11.00;99.90
4390;DHT22;2209;48.982;8.406;2023-12-29T02:25:14;11.00;99.90
4390;DHT22;2209;48.982;8.406;2023-12-29T02:27:43;11.00;99.90
4390;DHT22;2209;48.982;8.406;2023-12-29T02:30:17;11.00;99.90
4390;DHT22;2209;48.982;8.406;2023-12-29T02:32:43;11.00;99.90
4390;DHT22;2209;48.982;8.406;2023-12-29T02:35:09;11.00;99.90
4390;DHT22;2209;48.982;8.406;2023-12-29T02:37:32;11.00;99.90
4390;DHT22;2209;48.982;8.406;2023-12-29T02:39:58;11.00;99.90
4390;DHT22;2209;48.982;8.406;2023-12-29T02:42:22;11.00;99.90
4390;DHT22;2209;48.982;8.406;2023-12-29T02:44:44;10.90;99.90
4390;DHT22;2209;48.982;8.406;2023-12-29T02:47:07;10.90;99.90
4390;DHT22;2209;48.982;8.406;2023-12-29T02:49:29;11.00;99.90
4390;DHT22;2209;48.982;8.406;2023-12-29T02:51:52;10.90;99.90
4390;DHT22;2209;48.982;8.406;2023-12-29T02:54:14;10.90;99.90
4390;DHT22;2209;48.982;8.406;2023-12-29T02:56:37;10.90;99.90
4390;DHT22;2209;48.982;8.406;2023-12-29T02:59:00;10.90;99.90
4390;DHT22;2209;48.982;8.406;2023-12-29T03:01:23;10.90;99.90
4390;DHT22;2209;48.982;8.406;2023-12-29T03:03:45;10.80;99.90
4390;DHT22;2209;48.982;8.406;2023-12-29T03:06:07;10.80;99.90
4390;DHT22;2209;48.982;8.406;2023-12-29T03:08:30;10.80;99.90
4390;DHT22;2209;48.982;8.406;2023-12-29T03:10:53;10.80;99.90
4390;DHT22;2209;48.982;8.406;2023-12-29T03:13:15;10.80;99.90
4390;DHT22;2209;48.982;8.406;2023-12-29T03:15:39;10.80;99.90
4390;DHT22;2209;48.982;8.406;2023-12-29T03:18:01;10.80;99.90
4390;DHT22;2209;48.982;8.406;2023-12-29T03:20:24;10.90;99.90
4390;DHT22;2209;48.982;8.406;2023-12-29T03:22:46;10.90;99.90
4390;DHT22;2209;48.982;8.406;2023-12-29T03:25:09;10.90;99.90
4390;DHT22;2209;48.982;8.406;2023-12-29T03:27:31;10.90;99.90
4390;DHT22;2209;48.982;8.406;2023-12-29T03:29:53;11.00;99.90
4390;DHT22;2209;48.982;8.406;2023-12-29T03:32:17;10.90;99.90
4390;DHT22;2209;48.982;8.406;2023-12-29T03:34:40;11.00;99.90
4390;DHT22;2209;48.982;8.406;2023-12-29T03:37:02;10.90;99.90
4390;DHT22;2209;48.982;8.406;2023-12-29T03:39:25;11.00;99.90
4390;DHT22;2209;48.982;8.406;2023-12-29T03:41:47;10.90;99.90
4390;DHT22;2209;48.982;8.406;2023-12-29T03:44:09;10.90;99.90
4390;DHT22;2209;48.982;8.406;2023-12-29T03:46:32;10.90;99.90
4390;DHT22;2209;48.982;8.406;2023-12-29T03:48:56;10.90;99.90
4390;DHT22;2209;48.982;8.406;2023-12-29T03:51:18;10.90;99.90
4390;DHT22;2209;48.982;8.406;2023-12-29T03:53:41;10.90;99.90
4390;DHT22;2209;48.982;8.406;2023-12-29T03:56:14;10.90;99.90
4390;DHT22;2209;48.982;8.406;2023-12-29T03:58:36;10.90;99.90
4390;DHT22;2209;48.982;8.406;2023-12-29T04:00:59;10.90;99.90
4390;DHT22;2209;48.982;8.406;2023-12-29T04:03:23;10.90;99.90
4390;DHT22;2209;48.982;8.406;2023-12-29T04:05:47;10.90;99.90
4390;DHT22;2209;48.982;8.406;2023-12-29T04:08:09;10.90;99.90
4390;DHT22;2209;48.982;8.406;2023-12-29T04:10:33;10.90;99.90
4390;DHT22;2209;48.982;8.406;2023-12-29T04:12:55;10.90;99.90
4390;DHT22;2209;48.982;8.406;2023-12-29T04:15:18;10.90;99.90
4390;DHT22;2209;48.982;8.406;2023-12-29T04:17:40;10.90;99.90
4390;DHT22;2209;48.982;8.406;2023-12-29T04:20:03;10.90;99.90
4390;DHT22;2209;48.982;8.406;2023-12-29T04:22:27;10.90;99.90
4390;DHT22;2209;48.982;8.406;2023-12-29T04:24:49;10.90;99.90
4390;DHT22;2209;48.982;8.406;2023-12-29T04:27:13;10.90;99.90
4390;DHT22;2209;48.982;8.406;2023-12-29T04:29:35;10.90;99.90
4390;DHT22;2209;48.982;8.406;2023-12-29T04:31:59;10.90;99.90
4390;DHT22;2209;48.982;8.406;2023-12-29T04:34:22;10.90;99.90
4390;DHT22;2209;48.982;8.406;2023-12-29T04:36:44;10.90;99.90
4390;DHT22;2209;48.982;8.406;2023-12-29T04:39:08;10.90;99.90
4390;DHT22;2209;48.982;8.406;2023-12-29T04:41:31;10.90;99.90
4390;DHT22;2209;48.982;8.406;2023-12-29T04:43:53;10.90;99.90
4390;DHT22;2209;48.982;8.406;2023-12-29T04:46:16;10.90;99.90
4390;DHT22;2209;48.982;8.406;2023-12-29T04:48:38;10.90;99.90
4390;DHT22;2209;48.982;8.406;2023-12-29T04:51:01;10.90;99.90
4390;DHT22;2209;48.982;8.406;2023-12-29T04:53:23;11.00;99.90
4390;DHT22;2209;48.982;8.406;2023-12-29T04:55:47;11.00;99.90
4390;DHT22;2209;48.982;8.406;2023-12-29T04:58:09;11.00;99.90
4390;DHT22;2209;48.982;8.406;2023-12-29T05:00:32;11.00;99.90
4390;DHT22;2209;48.982;8.406;2023-12-29T05:02:54;11.00;99.90
4390;DHT22;2209;48.982;8.406;2023-12-29T05:05:16;11.00;99.90
4390;DHT22;2209;48.982;8.406;2023-12-29T05:07:40;11.00;99.90
4390;DHT22;2209;48.982;8.406;2023-12-29T05:10:09;11.00;99.90
4390;DHT22;2209;48.982;8.406;2023-12-29T05:12:32;11.00;99.90
4390;DHT22;2209;48.982;8.406;2023-12-29T05:14:55;11.10;99.90
4390;DHT22;2209;48.982;8.406;2023-12-29T05:17:17;11.10;99.90
4390;DHT22;2209;48.982;8.406;2023-12-29T05:19:40;11.00;99.90
4390;DHT22;2209;48.982;8.406;2023-12-29T05:22:02;11.10;99.90
4390;DHT22;2209;48.982;8.406;2023-12-29T05:24:25;11.00;99.90
4390;DHT22;2209;48.982;8.406;2023-12-29T05:26:47;11.00;99.90
4390;DHT22;2209;48.982;8.406;2023-12-29T05:29:11;11.00;99.90
4390;DHT22;2209;48.982;8.406;2023-12-29T05:31:33;11.00;99.90
4390;DHT22;2209;48.982;8.406;2023-12-29T05:33:56;11.00;99.90
4390;DHT22;2209;48.982;8.406;2023-12-29T05:36:18;11.00;99.90
4390;DHT22;2209;48.982;8.406;2023-12-29T05:38:43;10.90;99.90
4390;DHT22;2209;48.982;8.406;2023-12-29T05:41:06;10.90;99.90
4390;DHT22;2209;48.982;8.406;2023-12-29T05:43:32;10.90;99.90
4390;DHT22;2209;48.982;8.406;2023-12-29T05:45:57;10.90;99.90
4390;DHT22;2209;48.982;8.406;2023-12-29T05:48:19;10.90;99.90
4390;DHT22;2209;48.982;8.406;2023-12-29T05:50:42;10.90;99.90
4390;DHT22;2209;48.982;8.406;2023-12-29T05:53:04;10.80;99.90
4390;DHT22;2209;48.982;8.406;2023-12-29T05:55:27;10.80;99.90
4390;DHT22;2209;48.982;8.406;2023-12-29T05:57:50;10.80;99.90
4390;DHT22;2209;48.982;8.406;2023-12-29T06:00:13;10.80;99.90
4390;DHT22;2209;48.982;8.406;2023-12-29T06:02:37;10.80;99.90
4390;DHT22;2209;48.982;8.406;2023-12-29T06:05:00;10.80;99.90
4390;DHT22;2209;48.982;8.406;2023-12-29T06:07:23;10.80;99.90
4390;DHT22;2209;48.982;8.406;2023-12-29T06:09:46;10.70;99.90
4390;DHT22;2209;48.982;8.406;2023-12-29T06:12:10;10.80;99.90
4390;DHT22;2209;48.982;8.406;2023-12-29T06:14:33;10.80;99.90
4390;DHT22;2209;48.982;8.406;2023-12-29T06:16:58;10.80;99.90
4390;DHT22;2209;48.982;8.406;2023-12-29T06:19:56;10.80;99.90
4390;DHT22;2209;48.982;8.406;2023-12-29T06:22:19;10.70;99.90
4390;DHT22;2209;48.982;8.406;2023-12-29T06:24:42;10.80;99.90
4390;DHT22;2209;48.982;8.406;2023-12-29T06:27:04;10.80;99.90
4390;DHT22;2209;48.982;8.406;2023-12-29T06:29:27;10.80;99.90
4390;DHT22;2209;48.982;8.406;2023-12-29T06:31:50;10.80;99.90
4390;DHT22;2209;48.982;8.406;2023-12-29T06:34:13;10.80;99.90
4390;DHT22;2209;48.982;8.406;2023-12-29T06:36:37;10.70;99.90
4390;DHT22;2209;48.982;8.406;2023-12-29T06:38:59;10.70;99.90
4390;DHT22;2209;48.982;8.406;2023-12-29T06:41:22;10.70;99.90
4390;DHT22;2209;48.982;8.406;2023-12-29T06:43:45;10.70;99.90
4390;DHT22;2209;48.982;8.406;2023-12-29T06:46:08;10.70;99.90
4390;DHT22;2209;48.982;8.406;2023-12-29T06:48:31;10.70;99.90
4390;DHT22;2209;48.982;8.406;2023-12-29T06:50:53;10.70;99.90
4390;DHT22;2209;48.982;8.406;2023-12-29T06:53:17;10.70;99.90
4390;DHT22;2209;48.982;8.406;2023-12-29T06:55:40;10.70;99.90
4390;DHT22;2209;48.982;8.406;2023-12-29T06:58:03;10.70;99.90
4390;DHT22;2209;48.982;8.406;2023-12-29T07:00:25;10.70;99.90
4390;DHT22;2209;48.982;8.406;2023-12-29T07:02:48;10.70;99.90
4390;DHT22;2209;48.982;8.406;2023-12-29T07:05:10;10.70;99.90
4390;DHT22;2209;48.982;8.406;2023-12-29T07:07:33;10.70;99.90
4390;DHT22;2209;48.982;8.406;2023-12-29T07:09:58;10.70;99.90
4390;DHT22;2209;48.982;8.406;2023-12-29T07:12:20;10.70;99.90
4390;DHT22;2209;48.982;8.406;2023-12-29T07:14:43;10.70;99.90
4390;DHT22;2209;48.982;8.406;2023-12-29T07:17:06;10.80;99.90
4390;DHT22;2209;48.982;8.406;2023-12-29T07:19:28;10.80;99.90
4390;DHT22;2209;48.982;8.406;2023-12-29T07:21:57;10.80;99.90
4390;DHT22;2209;48.982;8.406;2023-12-29T07:24:20;10.80;99.90
4390;DHT22;2209;48.982;8.406;2023-12-29T07:26:44;10.80;99.90
4390;DHT22;2209;48.982;8.406;2023-12-29T07:29:06;10.90;99.90
4390;DHT22;2209;48.982;8.406;2023-12-29T07:31:29;10.90;99.90
4390;DHT22;2209;48.982;8.406;2023-12-29T07:33:51;10.90;99.90
4390;DHT22;2209;48.982;8.406;2023-12-29T07:36:14;10.90;99.90
4390;DHT22;2209;48.982;8.406;2023-12-29T07:38:36;10.90;99.90
4390;DHT22;2209;48.982;8.406;2023-12-29T07:40:59;10.90;99.90
4390;DHT22;2209;48.982;8.406;2023-12-29T07:43:24;10.90;99.90
4390;DHT22;2209;48.982;8.406;2023-12-29T07:45:47;10.90;99.90
4390;DHT22;2209;48.982;8.406;2023-12-29T07:48:10;10.90;99.90
4390;DHT22;2209;48.982;8.406;2023-12-29T07:50:32;10.90;99.90
4390;DHT22;2209;48.982;8.406;2023-12-29T07:52:55;10.90;99.90
4390;DHT22;2209;48.982;8.406;2023-12-29T07:55:18;10.90;99.90
4390;DHT22;2209;48.982;8.406;2023-12-29T07:57:40;10.90;99.90
4390;DHT22;2209;48.982;8.406;2023-12-29T08:00:06;10.90;99.90
4390;DHT22;2209;48.982;8.406;2023-12-29T08:02:29;10.90;99.90
4390;DHT22;2209;48.982;8.406;2023-12-29T08:04:51;10.90;99.90
4390;DHT22;2209;48.982;8.406;2023-12-29T08:07:15;11.00;99.90
4390;DHT22;2209;48.982;8.406;2023-12-29T08:09:38;10.90;99.90
4390;DHT22;2209;48.982;8.406;2023-12-29T08:12:03;11.00;99.90
4390;DHT22;2209;48.982;8.406;2023-12-29T08:14:28;11.00;99.90
4390;DHT22;2209;48.982;8.406;2023-12-29T08:16:52;11.00;99.90
4390;DHT22;2209;48.982;8.406;2023-12-29T08:19:15;11.00;99.90
4390;DHT22;2209;48.982;8.406;2023-12-29T08:21:37;11.00;99.90
4390;DHT22;2209;48.982;8.406;2023-12-29T08:24:00;11.00;99.90
4390;DHT22;2209;48.982;8.406;2023-12-29T08:26:22;11.00;99.90
4390;DHT22;2209;48.982;8.406;2023-12-29T08:28:45;11.00;99.90
4390;DHT22;2209;48.982;8.406;2023-12-29T08:31:25;11.00;99.90
4390;DHT22;2209;48.982;8.406;2023-12-29T08:33:51;11.00;99.90
4390;DHT22;2209;48.982;8.406;2023-12-29T08:36:18;11.00;99.90
4390;DHT22;2209;48.982;8.406;2023-12-29T08:38:40;11.00;99.90
4390;DHT22;2209;48.982;8.406;2023-12-29T08:41:03;11.00;99.90
4390;DHT22;2209;48.982;8.406;2023-12-29T08:43:26;11.00;99.90
4390;DHT22;2209;48.982;8.406;2023-12-29T08:45:48;11.00;99.90
4390;DHT22;2209;48.982;8.406;2023-12-29T08:48:11;11.00;99.90
4390;DHT22;2209;48.982;8.406;2023-12-29T08:50:35;11.00;99.90
4390;DHT22;2209;48.982;8.406;2023-12-29T08:52:57;11.00;99.90
4390;DHT22;2209;48.982;8.406;2023-12-29T08:55:20;11.00;99.90
4390;DHT22;2209;48.982;8.406;2023-12-29T08:57:42;11.00;99.90
4390;DHT22;2209;48.982;8.406;2023-12-29T09:00:06;11.00;99.90
4390;DHT22;2209;48.982;8.406;2023-12-29T09:02:30;11.10;99.90
4390;DHT22;2209;48.982;8.406;2023-12-29T09:04:53;11.10;99.90
4390;DHT22;2209;48.982;8.406;2023-12-29T09:07:17;11.20;99.90
4390;DHT22;2209;48.982;8.406;2023-12-29T09:09:39;11.20;99.90
4390;DHT22;2209;48.982;8.406;2023-12-29T09:12:01;11.20;99.90
4390;DHT22;2209;48.982;8.406;2023-12-29T09:14:23;11.20;99.90
4390;DHT22;2209;48.982;8.406;2023-12-29T09:16:46;11.20;99.90
4390;DHT22;2209;48.982;8.406;2023-12-29T09:19:08;11.20;99.90
4390;DHT22;2209;48.982;8.406;2023-12-29T09:21:30;11.20;99.90
4390;DHT22;2209;48.982;8.406;2023-12-29T09:23:53;11.20;99.90
4390;DHT22;2209;48.982;8.406;2023-12-29T09:26:15;11.20;99.90
4390;DHT22;2209;48.982;8.406;2023-12-29T09:28:37;11.10;99.90
4390;DHT22;2209;48.982;8.406;2023-12-29T09:34:19;11.20;99.90
4390;DHT22;2209;48.982;8.406;2023-12-29T09:36:42;11.20;99.90
4390;DHT22;2209;48.982;8.406;2023-12-29T09:39:06;11.20;99.90
4390;DHT22;2209;48.982;8.406;2023-12-29T09:41:31;11.20;99.90
4390;DHT22;2209;48.982;8.406;2023-12-29T09:43:56;11.20;99.90
4390;DHT22;2209;48.982;8.406;2023-12-29T09:46:22;11.20;99.90
4390;DHT22;2209;48.982;8.406;2023-12-29T09:48:46;11.20;99.90
4390;DHT22;2209;48.982;8.406;2023-12-29T09:51:14;11.20;99.90
4390;DHT22;2209;48.982;8.406;2023-12-29T09:53:38;11.30;99.90
4390;DHT22;2209;48.982;8.406;2023-12-29T09:56:04;11.30;99.90
4390;DHT22;2209;48.982;8.406;2023-12-29T09:58:27;11.30;99.90
4390;DHT22;2209;48.982;8.406;2023-12-29T10:00:50;11.40;99.90
4390;DHT22;2209;48.982;8.406;2023-12-29T10:03:13;11.40;99.90
4390;DHT22;2209;48.982;8.406;2023-12-29T10:05:36;11.40;99.90
4390;DHT22;2209;48.982;8.406;2023-12-29T10:08:02;11.40;99.90
4390;DHT22;2209;48.982;8.406;2023-12-29T10:10:26;11.50;99.90
4390;DHT22;2209;48.982;8.406;2023-12-29T10:12:51;11.50;99.90
4390;DHT22;2209;48.982;8.406;2023-12-29T10:15:17;11.50;99.90
4390;DHT22;2209;48.982;8.406;2023-12-29T10:17:50;11.50;99.90
4390;DHT22;2209;48.982;8.406;2023-12-29T10:23:22;11.60;99.90
4390;DHT22;2209;48.982;8.406;2023-12-29T10:25:47;11.60;99.90
4390;DHT22;2209;48.982;8.406;2023-12-29T10:28:13;11.60;99.90
4390;DHT22;2209;48.982;8.406;2023-12-29T10:30:36;11.70;99.90
4390;DHT22;2209;48.982;8.406;2023-12-29T10:32:59;11.70;99.90
4390;DHT22;2209;48.982;8.406;2023-12-29T10:35:24;11.80;99.90
4390;DHT22;2209;48.982;8.406;2023-12-29T10:37:47;11.80;99.90
4390;DHT22;2209;48.982;8.406;2023-12-29T10:40:17;11.80;99.90
4390;DHT22;2209;48.982;8.406;2023-12-29T10:42:52;11.80;99.90
4390;DHT22;2209;48.982;8.406;2023-12-29T10:45:17;11.80;99.90
4390;DHT22;2209;48.982;8.406;2023-12-29T10:47:44;11.80;99.90
4390;DHT22;2209;48.982;8.406;2023-12-29T10:50:08;11.80;99.90
4390;DHT22;2209;48.982;8.406;2023-12-29T10:52:32;11.80;99.90
4390;DHT22;2209;48.982;8.406;2023-12-29T10:55:05;11.80;99.90
4390;DHT22;2209;48.982;8.406;2023-12-29T10:57:28;11.90;99.90
4390;DHT22;2209;48.982;8.406;2023-12-29T10:59:55;11.90;99.90
4390;DHT22;2209;48.982;8.406;2023-12-29T11:02:19;11.90;99.90
4390;DHT22;2209;48.982;8.406;2023-12-29T11:04:43;12.00;99.90
4390;DHT22;2209;48.982;8.406;2023-12-29T11:07:07;12.00;99.90
4390;DHT22;2209;48.982;8.406;2023-12-29T11:09:34;12.00;99.90
4390;DHT22;2209;48.982;8.406;2023-12-29T11:11:59;12.10;99.90
4390;DHT22;2209;48.982;8.406;2023-12-29T11:14:23;12.10;99.90
4390;DHT22;2209;48.982;8.406;2023-12-29T11:16:46;12.10;99.90
4390;DHT22;2209;48.982;8.406;2023-12-29T11:19:11;12.10;99.90
4390;DHT22;2209;48.982;8.406;2023-12-29T11:21:36;12.10;99.90
4390;DHT22;2209;48.982;8.406;2023-12-29T11:24:00;12.00;99.90
4390;DHT22;2209;48.982;8.406;2023-12-29T11:26:23;12.00;99.90
4390;DHT22;2209;48.982;8.406;2023-12-29T11:28:47;12.10;99.90
4390;DHT22;2209;48.982;8.406;2023-12-29T11:31:10;12.10;99.90
4390;DHT22;2209;48.982;8.406;2023-12-29T11:33:40;12.10;99.90
4390;DHT22;2209;48.982;8.406;2023-12-29T11:36:10;12.10;99.90
4390;DHT22;2209;48.982;8.406;2023-12-29T11:38:47;12.10;99.90
4390;DHT22;2209;48.982;8.406;2023-12-29T11:41:24;12.10;99.90
4390;DHT22;2209;48.982;8.406;2023-12-29T11:43:56;12.10;99.90
4390;DHT22;2209;48.982;8.406;2023-12-29T11:46:33;12.10;99.90
4390;DHT22;2209;48.982;8.406;2023-12-29T11:48:56;12.20;99.90
4390;DHT22;2209;48.982;8.406;2023-12-29T11:51:31;12.20;99.90
4390;DHT22;2209;48.982;8.406;2023-12-29T11:53:54;12.20;99.90
4390;DHT22;2209;48.982;8.406;2023-12-29T11:56:18;12.20;99.90
4390;DHT22;2209;48.982;8.406;2023-12-29T11:58:41;12.20;99.90
4390;DHT22;2209;48.982;8.406;2023-12-29T12:01:04;12.20;99.90
4390;DHT22;2209;48.982;8.406;2023-12-29T12:03:47;12.30;99.90
4390;DHT22;2209;48.982;8.406;2023-12-29T12:06:10;12.30;99.90
4390;DHT22;2209;48.982;8.406;2023-12-29T12:08:35;12.30;99.90
4390;DHT22;2209;48.982;8.406;2023-12-29T12:13:57;12.40;99.90
4390;DHT22;2209;48.982;8.406;2023-12-29T12:16:48;12.40;99.90
4390;DHT22;2209;48.982;8.406;2023-12-29T12:19:12;12.30;99.90
4390;DHT22;2209;48.982;8.406;2023-12-29T12:21:35;12.40;99.90
4390;DHT22;2209;48.982;8.406;2023-12-29T12:24:00;12.30;99.90
4390;DHT22;2209;48.982;8.406;2023-12-29T12:26:26;12.40;99.90
4390;DHT22;2209;48.982;8.406;2023-12-29T12:28:52;12.40;99.90
4390;DHT22;2209;48.982;8.406;2023-12-29T12:31:15;12.40;99.90
4390;DHT22;2209;48.982;8.406;2023-12-29T12:33:39;12.40;99.90
4390;DHT22;2209;48.982;8.406;2023-12-29T12:36:02;12.40;99.90
4390;DHT22;2209;48.982;8.406;2023-12-29T12:38:28;12.40;99.90
4390;DHT22;2209;48.982;8.406;2023-12-29T12:40:54;12.40;99.90
4390;DHT22;2209;48.982;8.406;2023-12-29T12:43:18;12.40;99.90
4390;DHT22;2209;48.982;8.406;2023-12-29T12:45:42;12.40;99.90
4390;DHT22;2209;48.982;8.406;2023-12-29T12:48:13;12.40;99.90
4390;DHT22;2209;48.982;8.406;2023-12-29T12:50:37;12.40;99.90
4390;DHT22;2209;48.982;8.406;2023-12-29T12:53:04;12.40;99.90
4390;DHT22;2209;48.982;8.406;2023-12-29T12:55:31;12.40;99.90
4390;DHT22;2209;48.982;8.406;2023-12-29T12:57:56;12.40;99.90
4390;DHT22;2209;48.982;8.406;2023-12-29T13:00:19;12.40;99.90
4390;DHT22;2209;48.982;8.406;2023-12-29T13:02:44;12.40;99.90
4390;DHT22;2209;48.982;8.406;2023-12-29T13:05:08;12.40;99.90
4390;DHT22;2209;48.982;8.406;2023-12-29T13:07:32;12.40;99.90
4390;DHT22;2209;48.982;8.406;2023-12-29T13:09:56;12.50;99.90
4390;DHT22;2209;48.982;8.406;2023-12-29T13:12:19;12.50;99.90
4390;DHT22;2209;48.982;8.406;2023-12-29T13:14:45;12.50;99.90
4390;DHT22;2209;48.982;8.406;2023-12-29T13:17:09;12.50;99.90
4390;DHT22;2209;48.982;8.406;2023-12-29T13:19:56;12.50;99.90
4390;DHT22;2209;48.982;8.406;2023-12-29T13:22:21;12.50;99.90
4390;DHT22;2209;48.982;8.406;2023-12-29T13:24:45;12.50;99.90
4390;DHT22;2209;48.982;8.406;2023-12-29T13:27:08;12.50;99.90
4390;DHT22;2209;48.982;8.406;2023-12-29T13:29:31;12.50;99.90
4390;DHT22;2209;48.982;8.406;2023-12-29T13:32:05;12.50;99.90
4390;DHT22;2209;48.982;8.406;2023-12-29T13:34:36;12.60;99.90
4390;DHT22;2209;48.982;8.406;2023-12-29T13:37:03;12.60;99.90
4390;DHT22;2209;48.982;8.406;2023-12-29T13:39:31;12.60;99.90
4390;DHT22;2209;48.982;8.406;2023-12-29T13:42:00;12.60;99.90
4390;DHT22;2209;48.982;8.406;2023-12-29T13:44:25;12.60;99.90
4390;DHT22;2209;48.982;8.406;2023-12-29T13:46:51;12.60;99.90
4390;DHT22;2209;48.982;8.406;2023-12-29T13:49:16;12.60;99.90
4390;DHT22;2209;48.982;8.406;2023-12-29T13:51:38;12.60;99.90
4390;DHT22;2209;48.982;8.406;2023-12-29T13:54:01;12.60;99.90
4390;DHT22;2209;48.982;8.406;2023-12-29T13:56:24;12.60;99.90
4390;DHT22;2209;48.982;8.406;2023-12-29T13:58:51;12.60;99.90
4390;DHT22;2209;48.982;8.406;2023-12-29T14:01:14;12.60;99.90
4390;DHT22;2209;48.982;8.406;2023-12-29T14:03:42;12.60;99.90
4390;DHT22;2209;48.982;8.406;2023-12-29T14:06:08;12.60;99.90
4390;DHT22;2209;48.982;8.406;2023-12-29T14:08:39;12.50;99.90
4390;DHT22;2209;48.982;8.406;2023-12-29T14:11:06;12.50;99.90
4390;DHT22;2209;48.982;8.406;2023-12-29T14:13:28;12.50;99.90
4390;DHT22;2209;48.982;8.406;2023-12-29T14:15:50;12.50;99.90
4390;DHT22;2209;48.982;8.406;2023-12-29T14:18:37;12.50;99.90
4390;DHT22;2209;48.982;8.406;2023-12-29T14:21:01;12.50;99.90
4390;DHT22;2209;48.982;8.406;2023-12-29T14:23:25;12.50;99.90
4390;DHT22;2209;48.982;8.406;2023-12-29T14:25:47;12.50;99.90
4390;DHT22;2209;48.982;8.406;2023-12-29T14:28:15;12.50;99.90
4390;DHT22;2209;48.982;8.406;2023-12-29T14:30:37;12.50;99.90
4390;DHT22;2209;48.982;8.406;2023-12-29T14:32:59;12.50;99.90
4390;DHT22;2209;48.982;8.406;2023-12-29T14:35:21;12.50;99.90
4390;DHT22;2209;48.982;8.406;2023-12-29T14:37:43;12.50;99.90
4390;DHT22;2209;48.982;8.406;2023-12-29T14:40:10;12.50;99.90
4390;DHT22;2209;48.982;8.406;2023-12-29T14:45:50;12.50;99.90
4390;DHT22;2209;48.982;8.406;2023-12-29T14:48:14;12.50;99.90
4390;DHT22;2209;48.982;8.406;2023-12-29T14:50:37;12.50;99.90
4390;DHT22;2209;48.982;8.406;2023-12-29T14:53:00;12.50;99.90
4390;DHT22;2209;48.982;8.406;2023-12-29T14:55:24;12.50;99.90
4390;DHT22;2209;48.982;8.406;2023-12-29T14:57:47;12.50;99.90
4390;DHT22;2209;48.982;8.406;2023-12-29T15:00:11;12.50;99.90
4390;DHT22;2209;48.982;8.406;2023-12-29T15:02:34;12.50;99.90
4390;DHT22;2209;48.982;8.406;2023-12-29T15:04:57;12.50;99.90
4390;DHT22;2209;48.982;8.406;2023-12-29T15:07:19;12.40;99.90
4390;DHT22;2209;48.982;8.406;2023-12-29T15:09:45;12.40;99.90
4390;DHT22;2209;48.982;8.406;2023-12-29T15:12:10;12.40;99.90
4390;DHT22;2209;48.982;8.406;2023-12-29T15:14:33;12.40;99.90
4390;DHT22;2209;48.982;8.406;2023-12-29T15:16:56;12.40;99.90
4390;DHT22;2209;48.982;8.406;2023-12-29T15:19:19;12.40;99.90
4390;DHT22;2209;48.982;8.406;2023-12-29T15:21:42;12.40;99.90
4390;DHT22;2209;48.982;8.406;2023-12-29T15:24:05;12.40;99.90
4390;DHT22;2209;48.982;8.406;2023-12-29T15:26:28;12.40;99.90
4390;DHT22;2209;48.982;8.406;2023-12-29T15:28:52;12.40;99.90
4390;DHT22;2209;48.982;8.406;2023-12-29T15:31:16;12.40;99.90
4390;DHT22;2209;48.982;8.406;2023-12-29T15:34:14;12.40;99.90
4390;DHT22;2209;48.982;8.406;2023-12-29T15:36:51;12.40;99.90
4390;DHT22;2209;48.982;8.406;2023-12-29T15:39:13;12.40;99.90
4390;DHT22;2209;48.982;8.406;2023-12-29T15:41:37;12.30;99.90
4390;DHT22;2209;48.982;8.406;2023-12-29T15:44:02;12.30;99.90
4390;DHT22;2209;48.982;8.406;2023-12-29T15:46:27;12.30;99.90
4390;DHT22;2209;48.982;8.406;2023-12-29T15:48:50;12.30;99.90
4390;DHT22;2209;48.982;8.406;2023-12-29T15:51:13;12.30;99.90
4390;DHT22;2209;48.982;8.406;2023-12-29T15:53:36;12.40;99.90
4390;DHT22;2209;48.982;8.406;2023-12-29T15:56:00;12.40;99.90